Time;durP1;ratioP1;P1;durP2;ratioP2;P2;SDS_P1;SDS_P2;PMS_P1;PMS_P2;Temp;Humidity;BMP_temperature;BMP_pressure;BME280_temperature;BME280_humidity;BME280_pressure;Samples;Min_cycle;Max_cycle;Signal;HPM_P1;HPM_P2
2022/05/07 00:02:07;;;;;;;4.72;1.45;;;;;;;-142.75;100.00;77531.03;5031457;28;20049;-69
2022/05/07 00:04:37;;;;;;;5.43;1.65;;;;;;;-142.75;100.00;77536.94;5032876;28;20021;-69
2022/05/07 00:07:04;;;;;;;3.60;1.55;;;;;;;-142.75;100.00;77540.88;5031945;28;20044;-69
2022/05/07 00:09:30;;;;;;;5.93;1.90;;;;;;;-142.75;100.00;77538.91;5032627;28;20748;-69
2022/05/07 00:11:55;;;;;;;5.43;1.73;;;;;;;-142.75;100.00;77534.97;5032107;28;20120;-69
2022/05/07 00:14:20;;;;;;;;;;;;;;;-142.75;100.00;77533.00;5033893;28;20022;-69
2022/05/07 00:19:30;;;;;;;4.28;2.10;;;;;;;-142.75;100.00;77533.00;5033505;28;20553;-69
2022/05/07 00:21:55;;;;;;;5.10;1.75;;;;;;;-142.75;100.00;77538.91;5033844;28;20022;-69
2022/05/07 00:24:20;;;;;;;;;;;;;;;-142.75;100.00;77536.94;5033163;28;20033;-69
2022/05/07 00:26:46;;;;;;;7.03;1.83;;;;;;;-142.75;100.00;77542.84;5033819;28;19913;-69
2022/05/07 00:29:11;;;;;;;;;;;;;;;-142.75;100.00;77546.78;5033773;28;20028;-69
2022/05/07 00:31:36;;;;;;;6.68;2.00;;;;;;;-142.75;100.00;77544.81;5032325;28;19967;-69
2022/05/07 00:34:01;;;;;;;;;;;;;;;-142.75;100.00;77538.91;5031711;28;20076;-69
2022/05/07 00:36:27;;;;;;;5.93;2.50;;;;;;;-142.75;100.00;77534.97;5032532;28;19917;-68
2022/05/07 00:38:52;;;;;;;;;;;;;;;-142.75;100.00;77531.03;5032861;28;20087;-69
2022/05/07 00:41:17;;;;;;;5.15;1.83;;;;;;;-142.75;100.00;77525.13;5031847;28;19971;-69
2022/05/07 00:43:43;;;;;;;;;;;;;;;-142.75;100.00;77521.19;5032718;28;20449;-69
2022/05/07 00:46:10;;;;;;;7.25;2.45;;;;;;;-142.75;100.00;77527.09;5033436;28;19917;-69
2022/05/07 00:48:35;;;;;;;6.70;2.13;;;;;;;-142.75;100.00;77521.19;5032330;28;20076;-68
2022/05/07 00:53:47;;;;;;;8.98;2.50;;;;;;;-142.75;100.00;77536.94;5033547;28;20513;-69
2022/05/07 00:56:12;;;;;;;9.93;2.75;;;;;;;-142.75;100.00;77534.97;5032041;28;20025;-69
2022/05/07 00:58:38;;;;;;;;;;;;;;;-142.75;100.00;77533.00;5033279;28;20033;-69
2022/05/07 01:01:04;;;;;;;6.45;2.40;;;;;;;-142.75;100.00;77531.03;5033246;28;19916;-69
2022/05/07 01:03:30;;;;;;;8.48;2.45;;;;;;;-142.75;100.00;77536.94;5033394;28;20030;-69
2022/05/07 01:05:55;;;;;;;10.07;3.00;;;;;;;-142.75;100.00;77542.84;5031667;28;20426;-68
2022/05/07 01:08:21;;;;;;;7.47;2.67;;;;;;;-142.75;100.00;77546.78;5032798;28;20033;-68
2022/05/07 01:10:49;;;;;;;;;;;;;;;-142.75;100.00;77540.88;5034690;28;20033;-69
2022/05/07 01:13:15;;;;;;;4.80;2.17;;;;;;;-142.75;100.00;77550.72;5032567;28;19967;-69
2022/05/07 01:15:45;;;;;;;5.88;2.70;;;;;;;-142.75;100.00;77558.59;5031889;28;20029;-69
2022/05/07 01:18:12;;;;;;;7.95;2.88;;;;;;;-142.75;100.00;77562.53;5030755;28;20048;-69
2022/05/07 01:20:38;;;;;;;7.95;3.00;;;;;;;-142.75;100.00;77562.53;5032173;28;20032;-67
2022/05/07 01:23:04;;;;;;;6.57;3.00;;;;;;;-142.75;100.00;77562.53;5032331;28;20495;-68
2022/05/07 01:25:29;;;;;;;8.13;2.95;;;;;;;-142.75;100.00;77552.69;5036624;28;20029;-67
2022/05/07 01:27:54;;;;;;;;;;;;;;;-142.75;100.00;77550.72;5031463;28;20497;-67
2022/05/07 01:30:20;;;;;;;6.30;2.72;;;;;;;-142.75;100.00;77554.66;5030813;28;19920;-67
2022/05/07 01:32:46;;;;;;;;;;;;;;;-142.75;100.00;77558.59;5013623;28;20127;-67
2022/05/07 01:35:11;;;;;;;9.80;3.20;;;;;;;-142.75;100.00;77554.66;5030927;28;19940;-67
2022/05/07 01:37:36;;;;;;;;;;;;;;;-142.75;100.00;77554.66;5030022;28;20061;-68
2022/05/07 01:40:02;;;;;;;7.72;3.13;;;;;;;-142.75;100.00;77560.56;5031041;28;19971;-68
2022/05/07 01:42:27;;;;;;;;;;;;;;;-142.75;100.00;77568.44;5031219;28;20116;-67
2022/05/07 01:44:52;;;;;;;8.75;3.58;;;;;;;-142.75;100.00;77566.47;5030662;28;19913;-68
2022/05/07 01:50:02;;;;;;;12.98;4.10;;;;;;;-142.75;100.00;77578.28;5030261;28;20059;-67
2022/05/07 01:52:28;;;;;;;11.80;3.50;;;;;;;-142.75;100.00;77576.31;5030556;28;20053;-67
2022/05/07 01:54:53;;;;;;;;;;;;;;;-142.75;100.00;77582.22;5030092;28;20124;-67
2022/05/07 01:57:18;;;;;;;9.85;4.07;;;;;;;-142.75;100.00;77576.31;5028982;28;19992;-67
2022/05/07 01:59:44;;;;;;;10.77;3.55;;;;;;;-142.75;100.00;77580.25;5030322;28;20057;-67
2022/05/07 02:02:09;;;;;;;;;;;;;;;-142.75;100.00;77590.09;5029591;28;20021;-67
2022/05/07 02:04:34;;;;;;;11.38;4.13;;;;;;;-142.75;100.00;77594.03;5030223;28;20329;-67
2022/05/07 02:06:59;;;;;;;11.27;4.30;;;;;;;-142.75;100.00;77596.00;5030465;28;20394;-67
2022/05/07 02:09:25;;;;;;;9.70;4.07;;;;;;;-142.75;100.00;77605.84;5030177;28;20017;-68
2022/05/07 02:11:50;;;;;;;;;;;;;;;-142.75;100.00;77597.97;5030450;28;20021;-67
2022/05/07 02:14:15;;;;;;;12.55;4.18;;;;;;;-142.75;100.00;77592.06;5030319;28;19920;-68
2022/05/07 02:16:40;;;;;;;10.48;4.07;;;;;;;-142.75;100.00;77607.81;5029196;28;20033;-67
2022/05/07 02:19:06;;;;;;;12.80;4.25;;;;;;;-142.75;100.00;77609.78;5029978;28;20497;-67
2022/05/07 02:21:31;;;;;;;;;;;;;;;-142.75;100.00;77609.78;5030559;28;20030;-67
2022/05/07 02:23:56;;;;;;;9.63;3.65;;;;;;;-142.75;100.00;77594.03;5032984;28;19921;-67
2022/05/07 02:26:21;;;;;;;;;;;;;;;-142.75;100.00;77601.91;5037139;28;20029;-67
2022/05/07 02:28:47;;;;;;;12.63;4.55;;;;;;;-142.75;100.00;77609.78;5035580;28;19923;-67
2022/05/07 02:31:12;;;;;;;;;;;;;;;-142.75;100.00;77603.88;5036537;28;20014;-68
2022/05/07 02:33:37;;;;;;;9.98;4.60;;;;;;;-142.75;100.00;77594.03;5035664;28;19916;-68
2022/05/07 02:36:03;;;;;;;;;;;;;;;-142.75;100.00;77601.91;5036155;28;20029;-67
2022/05/07 02:38:28;;;;;;;9.40;5.13;;;;;;;-142.75;100.00;77597.97;5035496;28;19913;-67
2022/05/07 02:43:37;;;;;;;11.00;4.57;;;;;;;-142.75;100.00;77621.59;5037045;28;19920;-67
2022/05/07 02:46:02;;;;;;;12.00;4.93;;;;;;;-142.75;100.00;77633.41;5036803;28;20029;-67
2022/05/07 02:48:28;;;;;;;11.07;5.10;;;;;;;-142.75;100.00;77631.44;5036430;28;20685;-67
2022/05/07 02:50:53;;;;;;;17.10;5.65;;;;;;;-142.75;100.00;77653.09;5036893;28;20029;-67
2022/05/07 02:53:18;;;;;;;;;;;;;;;-142.75;100.00;77659.00;5037258;28;20029;-67
2022/05/07 02:55:43;;;;;;;18.20;5.97;;;;;;;-142.75;100.00;77672.78;5036863;28;19917;-67
2022/05/07 02:58:09;;;;;;;;;;;;;;;-142.75;100.00;77668.84;5036545;28;20393;-67
2022/05/07 03:00:34;;;;;;;10.80;5.07;;;;;;;-142.75;100.00;77674.75;5036761;28;19921;-67
2022/05/07 03:02:59;;;;;;;;;;;;;;;-142.75;100.00;77672.78;5037440;28;20475;-68
2022/05/07 03:05:24;;;;;;;15.85;6.20;;;;;;;-142.75;100.00;77674.75;5037922;28;19913;-67
2022/05/07 03:07:49;;;;;;;;;;;;;;;-142.75;100.00;77684.59;5040130;28;20025;-67
2022/05/07 03:10:15;;;;;;;14.63;6.43;;;;;;;-142.75;100.00;77682.63;5040129;28;20334;-67
2022/05/07 03:12:40;;;;;;;;;;;;;;;-142.75;100.00;77674.75;5040684;28;20033;-67
2022/05/07 03:15:06;;;;;;;25.15;6.45;;;;;;;-142.75;100.00;77672.78;5040190;28;20191;-67
2022/05/07 03:17:34;;;;;;;15.73;6.80;;;;;;;-142.75;100.00;77678.69;5041021;28;20402;-67
2022/05/07 03:19:59;;;;;;;12.30;6.40;;;;;;;-142.75;100.00;77676.72;5040515;28;20040;-67
2022/05/07 03:22:25;;;;;;;21.73;7.45;;;;;;;-142.75;100.00;77674.75;5041363;28;20041;-67
2022/05/07 03:24:50;;;;;;;;;;;;;;;-142.75;100.00;77676.72;5040226;28;20059;-67
2022/05/07 03:27:15;;;;;;;15.20;6.65;;;;;;;-142.75;100.00;77676.72;5040708;28;19917;-67
2022/05/07 03:29:40;;;;;;;;;;;;;;;-142.75;100.00;77680.66;5041127;28;20017;-67
2022/05/07 03:32:06;;;;;;;14.07;6.05;;;;;;;-142.75;100.00;77672.78;5040220;28;19913;-67
2022/05/07 03:34:31;;;;;;;;;;;;;;;-142.75;100.00;77672.78;5041049;28;20029;-67
2022/05/07 03:36:57;;;;;;;16.92;6.78;;;;;;;-142.75;100.00;77678.69;5037281;28;20378;-67
2022/05/07 03:39:23;;;;;;;18.42;8.18;;;;;;;-142.75;100.00;77684.59;5037646;28;20398;-67
2022/05/07 03:41:49;;;;;;;15.75;7.00;;;;;;;-142.75;100.00;77692.47;5032861;28;20025;-67
2022/05/07 03:44:14;;;;;;;14.20;6.43;;;;;;;-142.75;100.00;77700.34;5032563;28;20025;-67
2022/05/07 03:46:39;;;;;;;;;;;;;;;-142.75;100.00;77696.41;5032352;28;20033;-67
2022/05/07 03:49:06;;;;;;;17.60;7.38;;;;;;;-142.75;100.00;77696.41;5032151;28;19996;-67
2022/05/07 03:53:29;;;;;;;31.65;8.10;;;;;;;-142.75;100.00;77688.53;5031131;28;20462;-67
2022/05/07 03:54:16;;;;;;;18.17;8.32;;;;;;;-142.75;100.00;77682.63;5032059;28;20036;-67
2022/05/07 03:56:41;;;;;;;22.63;8.18;;;;;;;-142.75;100.00;77682.63;5032291;28;20033;-67
2022/05/07 03:59:07;;;;;;;;;;;;;;;-142.75;100.00;77694.44;5014532;28;20044;-67
2022/05/07 04:01:32;;;;;;;22.90;7.95;;;;;;;-142.75;100.00;77690.50;5031695;28;19917;-67
2022/05/07 04:03:57;;;;;;;;;;;;;;;-142.75;100.00;77696.41;5032454;28;20104;-67
2022/05/07 04:06:22;;;;;;;20.20;8.25;;;;;;;-142.75;100.00;77696.41;5031650;28;19920;-67
2022/05/07 04:08:47;;;;;;;;;;;;;;;-142.75;100.00;77706.25;5032184;28;20037;-67
2022/05/07 04:11:13;;;;;;;18.75;7.07;;;;;;;-142.75;100.00;77708.22;5032589;28;19920;-67
2022/05/07 04:13:38;;;;;;;17.17;8.00;;;;;;;-142.75;100.00;77718.06;5031657;28;20502;-67
2022/05/07 04:16:04;;;;;;;18.25;7.75;;;;;;;-142.75;100.00;77718.06;5032189;28;20061;-67
2022/05/07 04:18:29;;;;;;;;;;;;;;;-142.75;100.00;77725.97;5030669;28;20475;-67
2022/05/07 04:20:55;;;;;;;19.42;8.18;;;;;;;-142.75;100.00;77735.81;5030470;28;19962;-67
2022/05/07 04:23:20;;;;;;;23.25;9.07;;;;;;;-142.75;100.00;77743.69;5031605;28;20384;-69
2022/05/07 04:25:45;;;;;;;23.02;8.23;;;;;;;-142.75;100.00;77749.59;5030282;28;20025;-69
2022/05/07 04:28:10;;;;;;;;;;;;;;;-142.75;100.00;77765.34;5031840;28;20491;-68
2022/05/07 04:30:36;;;;;;;19.80;8.40;;;;;;;-142.75;100.00;77771.25;5030435;28;19971;-68
2022/05/07 04:33:01;;;;;;;21.45;8.52;;;;;;;-142.75;100.00;77773.22;5031548;28;20030;-68
2022/05/07 04:35:26;;;;;;;;;;;;;;;-142.75;100.00;77777.16;5031949;28;20033;-69
2022/05/07 04:37:52;;;;;;;28.45;9.98;;;;;;;-142.75;100.00;77773.22;5031134;28;20000;-68
2022/05/07 04:40:17;;;;;;;;;;;;;;;-142.75;100.00;77767.31;5031286;28;20026;-69
2022/05/07 04:42:42;;;;;;;21.40;10.30;;;;;;;-142.75;100.00;77763.38;5031517;28;19924;-68
2022/05/07 04:45:08;;;;;;;;;;;;;;;-142.75;100.00;77753.53;5031842;28;21057;-69
2022/05/07 04:47:33;;;;;;;26.17;10.93;;;;;;;-142.75;100.00;77747.63;5047917;22;19909;-68
2022/05/07 04:49:58;;;;;;;;;;;;;;;-142.75;100.00;77747.63;5037749;28;20456;-69
2022/05/07 04:52:24;;;;;;;28.30;10.70;;;;;;;-142.75;100.00;77739.75;5043666;28;20003;-69
2022/05/07 04:54:49;;;;;;;31.05;11.70;;;;;;;-142.75;100.00;77731.88;5039153;28;20047;-71
2022/05/07 04:57:14;;;;;;;28.48;11.88;;;;;;;-142.75;100.00;77727.94;5037469;28;20398;-70
2022/05/07 04:59:40;;;;;;;;;;;;;;;-142.75;100.00;77723.97;5028951;28;20071;-71
2022/05/07 05:02:05;;;;;;;29.98;10.98;;;;;;;-142.75;100.00;77720.03;5028992;28;19917;-68
2022/05/07 05:04:30;;;;;;;;;;;;;;;-142.75;100.00;77708.22;5030462;28;20079;-68
2022/05/07 05:06:55;;;;;;;23.90;10.60;;;;;;;-142.75;100.00;77702.31;5030016;28;19916;-68
2022/05/07 05:09:24;;;;;;;30.65;10.27;;;;;;;-142.75;100.00;77700.34;5029602;28;20475;-70
2022/05/07 05:11:50;;;;;;;28.92;11.13;;;;;;;-142.75;100.00;77698.38;5031722;28;20025;-68
2022/05/07 05:16:59;;;;;;;22.90;11.00;;;;;;;-142.75;100.00;77692.47;5030089;28;20044;-68
2022/05/07 05:19:24;;;;;;;24.38;10.57;;;;;;;-142.75;100.00;77690.50;5029892;28;20418;-68
2022/05/07 05:21:49;;;;;;;24.92;11.02;;;;;;;-142.75;100.00;77692.47;5030517;28;20083;-68
2022/05/07 05:24:15;;;;;;;20.85;10.57;;;;;;;-142.75;100.00;77684.59;5030075;28;20060;-68
2022/05/07 05:26:40;;;;;;;29.52;12.07;;;;;;;-142.75;100.00;77674.75;5031453;28;20026;-69
2022/05/07 05:29:05;;;;;;;;;;;;;;;-142.75;100.00;77672.78;5031414;28;20026;-69
2022/05/07 05:31:31;;;;;;;22.33;11.02;;;;;;;-142.75;100.00;77668.84;5031412;28;19919;-69
2022/05/07 05:33:57;;;;;;;;;;;;;;;-142.75;100.00;77660.97;5031866;28;20105;-69
2022/05/07 05:36:23;;;;;;;27.88;11.02;;;;;;;-142.75;100.00;77660.97;5031351;28;19913;-69
2022/05/07 05:38:49;;;;;;;32.20;11.50;;;;;;;-142.75;100.00;77647.19;5030990;28;20517;-68
2022/05/07 05:41:14;;;;;;;23.60;10.75;;;;;;;-142.75;100.00;77653.09;5031568;28;20021;-68
2022/05/07 05:43:40;;;;;;;26.05;10.68;;;;;;;-142.75;100.00;77649.16;5031158;28;20083;-69
2022/05/07 05:46:05;;;;;;;30.42;11.77;;;;;;;-142.75;100.00;77639.31;5029901;28;20033;-69
2022/05/07 05:48:30;;;;;;;;;;;;;;;-142.75;100.00;77641.28;5031156;28;20025;-69
2022/05/07 05:50:56;;;;;;;28.23;10.32;;;;;;;-142.75;100.00;77647.19;5031102;28;19917;-69
2022/05/07 05:53:21;;;;;;;;;;;;;;;-142.75;100.00;77639.31;5030489;28;20657;-68
2022/05/07 05:55:47;;;;;;;25.80;10.65;;;;;;;-142.75;100.00;77643.25;5031045;28;19912;-68
2022/05/07 05:58:12;;;;;;;;;;;;;;;-142.75;100.00;77633.41;5028243;28;20029;-69
2022/05/07 06:00:38;;;;;;;28.15;11.77;;;;;;;-142.75;100.00;77635.38;5029401;28;19952;-69
2022/05/07 06:03:03;;;;;;;;;;;;;;;-142.75;100.00;77627.50;5031434;28;20041;-69
2022/05/07 06:05:28;;;;;;;30.52;12.65;;;;;;;-142.75;100.00;77613.72;5029822;28;19916;-69
2022/05/07 06:07:53;;;;;;;;;;;;;;;-142.75;100.00;77594.03;5031037;28;20486;-67
2022/05/07 06:10:19;;;;;;;27.25;12.18;;;;;;;-142.75;100.00;77588.13;5030766;28;20016;-69
2022/05/07 06:12:44;;;;;;;22.33;10.30;;;;;;;-142.75;100.00;77566.47;5030878;28;20104;-68
2022/05/07 06:15:11;;;;;;;26.45;13.13;;;;;;;-142.75;100.00;77544.81;5029403;28;20501;-69
2022/05/07 06:17:36;;;;;;;27.60;11.35;;;;;;;-142.75;100.00;77515.28;5030632;28;20090;-69
2022/05/07 06:20:02;;;;;;;31.23;12.20;;;;;;;-142.75;100.00;77491.66;5030393;28;20025;-69
2022/05/07 06:22:27;;;;;;;26.52;12.32;;;;;;;-142.75;100.00;77475.91;5030733;28;20387;-69
2022/05/07 06:27:36;;;;;;;22.38;11.00;;;;;;;-142.75;100.00;77432.56;5030477;28;19958;-68
2022/05/07 06:30:02;;;;;;;;;;;;;;;-142.75;100.00;77391.22;5030911;28;20520;-69
2022/05/07 06:32:35;;;;;;;21.17;10.23;;;;;;;-142.75;100.00;77373.50;5030499;28;19913;-68
2022/05/07 06:35:05;;;;;;;25.90;10.48;;;;;;;-142.75;100.00;77357.75;5028487;28;20061;-68
2022/05/07 06:37:31;;;;;;;18.70;9.30;;;;;;;-142.75;100.00;77318.38;5029067;28;20029;-68
2022/05/07 06:39:56;;;;;;;;;;;;;;;-142.75;100.00;77292.78;5028130;28;20021;-68
2022/05/07 06:42:22;;;;;;;22.02;10.55;;;;;;;-142.75;100.00;77257.34;5027348;28;19917;-68
2022/05/07 06:44:47;;;;;;;;;;;;;;;-142.75;100.00;77239.63;5028998;28;20098;-68
2022/05/07 06:47:12;;;;;;;19.60;9.35;;;;;;;-142.75;100.00;77225.84;5029027;28;20006;-67
2022/05/07 06:49:38;;;;;;;;;;;;;;;-142.75;100.00;77208.13;5029143;28;20462;-68
2022/05/07 06:52:04;;;;;;;22.67;9.63;;;;;;;-142.75;100.00;77198.28;5028833;28;20465;-68
2022/05/07 06:54:29;;;;;;;17.63;9.13;;;;;;;-142.75;100.00;77188.44;5028521;28;20045;-67
2022/05/07 06:56:54;;;;;;;;;;;;;;;-142.75;100.00;77172.69;5029196;28;20033;-68
2022/05/07 06:59:20;;;;;;;18.58;7.68;;;;;;;-142.75;100.00;77166.78;5028200;28;19971;-68
2022/05/07 07:01:46;;;;;;;17.20;8.02;;;;;;;-142.75;100.00;77172.69;5028792;28;20422;-68
2022/05/07 07:04:11;;;;;;;;;;;;;;;-142.75;100.00;77156.94;5029375;28;20041;-68
2022/05/07 07:06:37;;;;;;;15.48;7.43;;;;;;;-142.75;100.00;77141.19;5029278;28;19917;-68
2022/05/07 07:09:03;;;;;;;18.20;7.15;;;;;;;-142.75;100.00;77109.69;5028407;28;20032;-68
2022/05/07 07:11:28;;;;;;;13.48;6.47;;;;;;;-142.75;100.00;77082.13;5030409;28;20017;-68
2022/05/07 07:13:53;;;;;;;17.08;6.90;;;;;;;-142.75;100.00;77088.03;5032526;28;20112;-68
2022/05/07 07:16:19;;;;;;;;;;;;;;;-142.75;100.00;77080.16;5032782;28;20033;-68
2022/05/07 07:18:44;;;;;;;12.55;6.15;;;;;;;-142.75;100.00;77070.31;5030540;28;19963;-68
2022/05/07 07:21:11;;;;;;;;;;;;;;;-142.75;100.00;77054.56;5031337;28;20043;-68
2022/05/07 07:23:36;;;;;;;11.23;6.00;;;;;;;-142.75;100.00;77030.94;5032399;28;19917;-68
2022/05/07 07:26:01;;;;;;;12.05;6.05;;;;;;;-142.75;100.00;76995.50;5031873;28;20112;-68
2022/05/07 07:28:26;;;;;;;;;;;;;;;-142.75;100.00;76979.75;5032509;28;20029;-67
2022/05/07 07:30:52;;;;;;;10.65;5.88;;;;;;;-142.75;100.00;76960.06;5030821;28;20396;-69
2022/05/07 07:33:17;;;;;;;14.48;5.82;;;;;;;-142.75;100.00;76924.63;5030711;28;20108;-69
2022/05/07 07:35:43;;;;;;;;;;;;;;;-142.75;100.00;76887.22;5032965;28;20084;-68
2022/05/07 07:38:08;;;;;;;16.63;6.53;;;;;;;-142.75;100.00;76912.81;5030605;28;19924;-68
2022/05/07 07:40:35;;;;;;;10.43;4.88;;;;;;;-142.75;100.00;76865.56;5030389;28;20040;-68
2022/05/07 07:43:01;;;;;;;11.23;5.90;;;;;;;-142.75;100.00;76877.38;5031962;28;20036;-68
2022/05/07 07:48:10;;;;;;;12.02;5.28;;;;;;;-142.75;100.00;76847.84;5032188;28;20056;-67
2022/05/07 07:50:38;;;;;;;9.60;4.78;;;;;;;-142.75;100.00;76838.00;5031917;28;21419;-68
2022/05/07 07:53:06;;;;;;;15.70;5.22;;;;;;;-142.75;100.00;76834.06;5031713;28;20181;-68
2022/05/07 07:55:31;;;;;;;9.68;4.22;;;;;;;-142.75;100.00;76843.91;5031399;28;20116;-68
2022/05/07 07:58:00;;;;;;;8.25;4.63;;;;;;;-142.75;100.00;76808.50;5031481;28;20055;-68
2022/05/07 08:00:27;;;;;;;8.85;4.80;;;;;;;-142.75;100.00;76777.00;5031511;28;20057;-68
2022/05/07 08:02:58;;;;;;;12.00;5.03;;;;;;;-142.75;100.00;76755.34;5031683;28;20091;-68
2022/05/07 08:05:26;;;;;;;8.65;4.57;;;;;;;-142.75;100.00;76743.53;5030297;28;20104;-69
2022/05/07 08:13:20;;;;;;;8.77;4.40;;;;;;;-142.75;100.00;76727.78;5031796;28;20155;-68
2022/05/07 08:15:45;;;;;;;6.88;3.95;;;;;;;-142.75;100.00;76698.25;5030113;28;20064;-68
2022/05/07 08:18:14;;;;;;;9.43;4.07;;;;;;;-142.75;100.00;76759.28;5030816;28;20099;-68
2022/05/07 08:20:41;;;;;;;8.70;4.45;;;;;;;-142.75;100.00;76719.91;5031113;28;20653;-68
2022/05/07 08:23:07;;;;;;;8.50;5.07;;;;;;;-142.75;100.00;76723.84;5030750;28;20343;-68
2022/05/07 08:25:33;;;;;;;13.30;5.45;;;;;;;-142.75;100.00;76715.97;5030933;28;20048;-68
2022/05/07 08:27:58;;;;;;;11.48;5.03;;;;;;;-142.75;100.00;76700.22;5030581;28;20151;-68
2022/05/07 08:30:24;;;;;;;14.07;5.70;;;;;;;-142.75;100.00;76668.72;5031242;28;20438;-68
2022/05/07 08:32:49;;;;;;;10.50;5.10;;;;;;;-142.75;100.00;76662.81;5031135;28;20032;-68
2022/05/07 08:35:14;;;;;;;8.30;3.35;;;;;;;-142.75;100.00;76623.44;5030621;28;20510;-68
2022/05/07 08:37:40;;;;;;;8.50;4.53;;;;;;;-142.75;100.00;76613.59;5030377;28;20037;-68
2022/05/07 08:40:05;;;;;;;9.15;4.70;;;;;;;-142.75;100.00;76586.03;5030259;28;20022;-69
2022/05/07 08:42:31;;;;;;;11.88;4.90;;;;;;;-142.75;100.00;76578.16;5030701;28;20126;-68
2022/05/07 08:44:57;;;;;;;10.07;4.63;;;;;;;-142.75;100.00;76593.91;5030665;28;20025;-68
2022/05/07 08:47:23;;;;;;;7.40;4.63;;;;;;;-142.75;100.00;76556.50;5030771;28;20037;-68
2022/05/07 08:49:55;;;;;;;8.50;3.97;;;;;;;-142.75;100.00;76542.72;5027520;28;20096;-68
2022/05/07 08:52:22;;;;;;;8.60;3.88;;;;;;;-142.75;100.00;76530.91;5030500;28;20083;-68
2022/05/07 08:54:47;;;;;;;8.10;4.25;;;;;;;-142.75;100.00;76523.06;5030371;28;20053;-68
2022/05/07 08:57:13;;;;;;;7.25;4.10;;;;;;;-142.75;100.00;76511.25;5030569;28;20108;-68
2022/05/07 08:59:39;;;;;;;7.30;4.22;;;;;;;-142.75;100.00;76471.88;5030194;28;20029;-69
2022/05/07 09:02:05;;;;;;;13.30;4.93;;;;;;;-142.75;100.00;76489.59;5030406;28;20112;-69
2022/05/07 09:04:31;;;;;;;10.73;4.85;;;;;;;-142.75;100.00;76493.53;5030846;28;20108;-68
2022/05/07 09:06:57;;;;;;;8.27;4.43;;;;;;;-142.75;100.00;76499.44;5031241;28;20083;-68
2022/05/07 09:09:23;;;;;;;10.27;4.80;;;;;;;-142.75;100.00;76519.13;5029718;28;20044;-68
2022/05/07 09:11:49;;;;;;;11.73;5.00;;;;;;;-142.75;100.00;76505.34;5030286;28;20021;-68
2022/05/07 09:14:14;;;;;;;8.60;4.00;;;;;;;-142.75;97.09;76467.94;5030352;28;20025;-69
2022/05/07 09:16:45;;;;;;;8.90;4.50;;;;;;;-142.75;97.33;76454.16;5028687;28;20033;-68
2022/05/07 09:19:25;;;;;;;8.75;4.75;;;;;;;-142.75;100.00;76420.69;5029866;28;20038;-68
2022/05/07 09:21:54;;;;;;;8.88;4.72;;;;;;;-142.75;96.22;76438.41;5029926;28;20167;-68
2022/05/07 09:24:20;;;;;;;8.73;4.78;;;;;;;-142.75;93.76;76448.25;5028106;28;20025;-68
2022/05/07 09:26:47;;;;;;;10.57;5.47;;;;;;;-142.75;90.74;76436.44;5029715;28;20075;-69
2022/05/07 09:29:14;;;;;;;8.90;4.88;;;;;;;-142.75;85.78;76408.88;5029930;28;20022;-68
2022/05/07 09:31:41;;;;;;;7.82;4.82;;;;;;;-142.75;88.85;76383.28;5030058;28;20071;-69
2022/05/07 09:36:55;;;;;;;6.78;3.70;;;;;;;-142.75;83.32;76454.16;5030662;28;20418;-69
2022/05/07 09:39:21;;;;;;;8.18;3.55;;;;;;;-142.75;84.26;76456.13;5029014;28;20025;-69
2022/05/07 09:41:53;;;;;;;9.77;4.50;;;;;;;-142.75;88.99;76436.44;5028482;28;20053;-68
2022/05/07 09:44:20;;;;;;;7.20;3.90;;;;;;;-142.75;81.64;76422.66;5029892;28;20100;-69
2022/05/07 09:46:45;;;;;;;9.40;4.43;;;;;;;-142.75;81.63;76387.22;5029629;28;20024;-69
2022/05/07 09:49:12;;;;;;;9.68;5.10;;;;;;;-142.75;82.45;76365.56;5029036;28;20025;-69
2022/05/07 09:51:37;;;;;;;11.02;5.28;;;;;;;-142.75;80.33;76361.63;5029481;28;20025;-69
2022/05/07 09:59:32;;;;;;;10.00;5.70;;;;;;;-142.75;80.92;76367.53;5029439;28;20040;-69
2022/05/07 10:02:54;;;;;;;9.98;5.07;;;;;;;-142.75;79.72;76334.09;5029149;28;20021;-69
2022/05/07 10:05:32;;;;;;;9.27;5.63;;;;;;;-142.75;74.17;76278.97;4968069;28;20081;-69
2022/05/07 10:08:07;;;;;;;10.63;5.95;;;;;;;-142.75;73.83;76278.97;4952166;28;20121;-69
2022/05/07 10:10:36;;;;;;;8.77;5.13;;;;;;;-142.75;71.27;76233.69;5013276;28;20052;-68
2022/05/07 10:13:04;;;;;;;9.43;5.20;;;;;;;-142.75;73.44;76306.53;5029446;28;20502;-69
2022/05/07 10:15:29;;;;;;;14.82;6.25;;;;;;;-142.75;74.55;76330.16;5029046;28;20057;-69
2022/05/07 10:18:02;;;;;;;9.02;5.15;;;;;;;-142.75;77.39;76361.63;5028881;28;20049;-69
2022/05/07 10:20:39;;;;;;;12.48;5.55;;;;;;;-142.75;72.92;76280.94;5029194;28;20029;-69
2022/05/07 10:23:09;;;;;;;11.65;4.85;;;;;;;-142.75;74.29;76214.00;5028961;28;20078;-69
2022/05/07 10:25:36;;;;;;;9.20;4.93;;;;;;;-142.75;72.51;76186.47;5029112;28;20121;-69
2022/05/07 10:28:13;;;;;;;10.88;4.43;;;;;;;-142.75;71.83;76229.75;5028742;28;20386;-69
2022/05/07 10:30:52;;;;;;;10.68;5.30;;;;;;;-142.75;75.63;76365.56;5027900;28;20041;-69
2022/05/07 10:33:19;;;;;;;9.52;5.55;;;;;;;-142.75;77.95;76450.22;5027701;28;20115;-69
2022/05/07 10:35:53;;;;;;;14.45;6.82;;;;;;;-142.75;84.38;76493.53;5029221;28;20029;-69
2022/05/07 10:38:36;;;;;;;16.60;7.00;;;;;;;-142.75;83.55;76546.66;5027702;28;20029;-69
2022/05/07 10:41:06;;;;;;;15.77;6.53;;;;;;;-142.75;90.69;76582.09;5027862;28;20021;-69
2022/05/07 10:43:36;;;;;;;15.95;6.65;;;;;;;-142.75;87.19;76536.84;5027509;28;20537;-69
2022/05/07 10:46:13;;;;;;;12.32;6.57;;;;;;;-142.75;87.40;76513.22;5031966;28;20029;-69
2022/05/07 10:48:53;;;;;;;13.80;6.75;;;;;;;-142.75;85.62;76548.63;5032499;28;20029;-69
2022/05/07 10:51:50;;;;;;;12.20;6.97;;;;;;;-142.75;87.40;76586.03;5032919;28;20450;-69
2022/05/07 10:54:24;;;;;;;13.07;6.95;;;;;;;-142.75;91.93;76595.88;5032743;28;20104;-69
2022/05/07 10:56:55;;;;;;;18.00;8.32;;;;;;;-142.75;92.44;76635.25;5032914;28;20079;-69
2022/05/07 10:59:22;;;;;;;13.38;6.97;;;;;;;-142.75;96.71;76664.78;5032453;28;20368;-69
2022/05/07 11:01:49;;;;;;;18.95;8.00;;;;;;;-142.75;97.99;76714.00;5032597;28;20117;-69
2022/05/07 11:04:18;;;;;;;12.40;6.60;;;;;;;-142.75;100.00;76715.97;5032965;28;20033;-69
2022/05/07 11:06:46;;;;;;;16.55;7.90;;;;;;;-142.75;100.00;76743.53;5031618;28;20486;-69
2022/05/07 11:09:16;;;;;;;16.73;7.38;;;;;;;-142.75;100.00;76739.59;5031934;28;20022;-68
2022/05/07 11:11:44;;;;;;;19.50;6.70;;;;;;;-142.75;99.23;76759.28;5049714;22;20064;-66
2022/05/07 11:14:18;;;;;;;10.20;5.75;;;;;;;-142.75;94.67;76751.41;5034991;28;20021;-65
2022/05/07 11:16:43;;;;;;;14.73;6.90;;;;;;;-142.75;97.81;76749.44;5037526;28;20025;-65
2022/05/07 11:19:09;;;;;;;14.88;8.13;;;;;;;-142.75;100.00;76751.41;5039679;28;20411;-65
2022/05/07 11:21:36;;;;;;;19.73;8.00;;;;;;;-142.75;100.00;76645.09;5039100;28;20033;-65
2022/05/07 11:24:02;;;;;;;14.80;7.05;;;;;;;-142.75;93.67;76554.53;5038409;28;20033;-65
2022/05/07 11:26:27;;;;;;;14.05;5.90;;;;;;;-142.75;85.83;76471.88;5037646;28;20455;-66
2022/05/07 11:28:53;;;;;;;12.82;6.70;;;;;;;-142.75;81.21;76434.47;5037300;28;20083;-65
2022/05/07 11:31:32;;;;;;;11.52;7.07;;;;;;;-142.75;81.10;76383.28;5036769;28;20053;-65
2022/05/07 11:34:06;;;;;;;14.02;7.10;;;;;;;-142.75;79.12;76343.94;5033840;28;20033;-68
2022/05/07 11:36:32;;;;;;;16.65;8.32;;;;;;;-142.75;74.57;76304.56;5035300;28;20048;-68
2022/05/07 11:39:04;;;;;;;15.77;7.65;;;;;;;-142.75;74.63;76310.47;5035698;28;20021;-67
2022/05/07 11:41:30;;;;;;;10.50;6.25;;;;;;;-142.75;74.55;76385.25;5033188;28;20049;-67
2022/05/07 11:46:52;;;;;;;11.43;6.85;;;;;;;-142.75;73.47;76318.34;5036301;28;20032;-66
2022/05/07 11:49:33;;;;;;;12.18;7.18;;;;;;;-142.75;73.13;76314.41;5036344;28;20482;-67
2022/05/07 11:52:10;;;;;;;18.70;8.35;;;;;;;-142.75;74.35;76306.53;5036055;28;20018;-66
2022/05/07 11:54:35;;;;;;;15.73;6.40;;;;;;;-142.75;73.12;76369.50;5036427;28;20029;-67